Time;durP1;ratioP1;P1;durP2;ratioP2;P2;SDS_P1;SDS_P2;PMS_P1;PMS_P2;Temp;Humidity;BMP_temperature;BMP_pressure;BME280_temperature;BME280_humidity;BME280_pressure;Samples;Min_cycle;Max_cycle;Signal;HPM_P1;HPM_P2
2023/10/27 00:00:41;;;;;;;8.27;4.20;;;;;;;16.40;62.08;96577.47;6987014;28;20195;-82
2023/10/27 00:04:02;;;;;;;7.60;3.87;;;;;;;16.86;61.27;96597.41;6986380;28;20677;-82
2023/10/27 00:07:24;;;;;;;5.37;3.23;;;;;;;16.79;60.25;96602.38;6975922;28;20289;-81
2023/10/27 00:10:47;;;;;;;5.20;3.80;;;;;;;16.76;60.59;96600.28;6986644;28;20368;-81
2023/10/27 00:14:08;;;;;;;5.57;3.53;;;;;;;16.71;59.78;96565.81;6977719;28;20232;-81
2023/10/27 00:17:30;;;;;;;5.87;4.10;;;;;;;16.63;60.89;96595.59;6976628;28;20220;-81
2023/10/27 00:20:51;;;;;;;7.50;4.03;;;;;;;16.47;62.04;96597.75;6976928;28;20223;-81
2023/10/27 00:24:12;;;;;;;7.20;3.87;;;;;;;16.34;61.46;96590.28;6972642;28;20754;-81
2023/10/27 00:27:35;;;;;;;6.10;3.70;;;;;;;16.38;62.11;96590.50;6964781;28;20313;-81
2023/10/27 00:30:57;;;;;;;6.03;3.60;;;;;;;16.65;60.89;96605.09;6968483;28;20814;-81
2023/10/27 00:34:18;;;;;;;6.23;3.63;;;;;;;16.34;60.16;96563.09;6974522;28;20338;-81
2023/10/27 00:37:40;;;;;;;5.37;3.50;;;;;;;16.69;59.80;96592.47;6976125;28;20222;-81
2023/10/27 00:41:02;;;;;;;6.67;3.90;;;;;;;16.40;60.60;96586.41;6961845;28;20281;-81
2023/10/27 00:44:24;;;;;;;5.93;3.30;;;;;;;16.26;61.57;96604.56;6974816;28;20293;-81
2023/10/27 00:47:46;;;;;;;4.00;3.37;;;;;;;16.29;61.29;96592.28;6974486;28;20309;-81
2023/10/27 00:51:09;;;;;;;5.60;3.67;;;;;;;16.43;60.73;96590.47;6976169;28;20641;-80
2023/10/27 00:54:31;;;;;;;5.40;3.40;;;;;;;16.61;59.61;96600.50;6972632;28;20207;-81
2023/10/27 00:57:53;;;;;;;6.93;3.30;;;;;;;15.79;62.36;96595.69;6968141;28;20219;-80
2023/10/27 01:01:17;;;;;;;3.47;3.00;;;;;;;15.79;62.42;96592.97;6957939;28;20292;-81
2023/10/27 01:04:39;;;;;;;5.37;3.27;;;;;;;16.02;61.73;96592.13;6957023;28;20200;-81
2023/10/27 01:08:01;;;;;;;5.73;3.60;;;;;;;15.72;62.45;96562.63;6974652;28;20348;-81
2023/10/27 01:11:22;;;;;;;7.70;3.90;;;;;;;16.21;61.08;96582.88;6972701;28;20326;-81
2023/10/27 01:14:44;;;;;;;5.80;3.27;;;;;;;15.97;61.59;96584.03;6972914;28;20348;-80
2023/10/27 01:18:07;;;;;;;4.53;3.73;;;;;;;15.88;61.95;96581.19;6961185;28;20640;-81
2023/10/27 01:21:28;;;;;;;5.07;3.53;;;;;;;15.77;62.13;96593.28;6958676;28;20218;-81
2023/10/27 01:24:52;;;;;;;3.50;3.10;;;;;;;15.44;63.12;96566.25;6973625;28;20694;-81
2023/10/27 01:28:14;;;;;;;3.73;3.13;;;;;;;15.70;62.35;96564.84;6972751;28;20702;-81
2023/10/27 01:31:35;;;;;;;6.23;4.47;;;;;;;15.83;62.08;96548.66;6960729;28;20247;-82
2023/10/27 01:34:57;;;;;;;3.73;2.50;;;;;;;15.45;61.39;96494.56;6971232;28;20286;-81
2023/10/27 01:38:18;;;;;;;6.13;3.17;;;;;;;15.55;61.91;96549.56;6974775;28;20264;-81
2023/10/27 01:41:41;;;;;;;4.77;2.70;;;;;;;15.45;62.33;96560.53;6974454;28;20681;-80
2023/10/27 01:45:04;;;;;;;5.10;2.93;;;;;;;15.46;62.28;96566.78;6974035;28;20219;-81
2023/10/27 01:48:26;;;;;;;2.83;2.30;;;;;;;15.36;62.94;96562.28;6971313;28;20600;-81
2023/10/27 01:51:48;;;;;;;4.20;2.70;;;;;;;15.24;62.72;96539.31;6966941;28;20280;-81
2023/10/27 01:55:10;;;;;;;3.00;2.20;;;;;;;15.49;62.38;96563.47;6964715;28;20723;-81
2023/10/27 01:58:32;;;;;;;4.43;2.33;;;;;;;15.77;61.73;96552.53;6956291;28;20576;-81
2023/10/27 02:01:54;;;;;;;4.87;2.60;;;;;;;15.92;61.68;96554.22;6974453;28;20242;-81
2023/10/27 02:05:15;;;;;;;10.03;2.90;;;;;;;15.96;60.95;96541.66;6974201;28;20348;-81
2023/10/27 02:08:38;;;;;;;3.47;2.33;;;;;;;16.17;60.69;96543.78;6971903;28;20465;-81
2023/10/27 02:12:00;;;;;;;5.33;2.80;;;;;;;15.92;60.70;96514.25;6966179;28;20219;-81
2023/10/27 02:15:23;;;;;;;6.73;2.97;;;;;;;16.29;59.58;96555.00;6976756;28;20285;-81
2023/10/27 02:18:44;;;;;;;4.40;2.60;;;;;;;16.22;60.07;96540.19;6972355;28;20264;-81
2023/10/27 02:22:06;;;;;;;6.27;2.40;;;;;;;16.16;60.47;96542.16;6979019;28;20221;-81
2023/10/27 02:25:27;;;;;;;4.30;2.57;;;;;;;16.11;60.61;96541.44;6972382;28;20268;-81
2023/10/27 02:28:48;;;;;;;5.40;2.70;;;;;;;15.75;61.45;96541.13;6956819;28;20817;-81
2023/10/27 02:32:11;;;;;;;4.90;2.60;;;;;;;15.94;61.26;96541.97;6962613;28;20309;-81
2023/10/27 02:35:33;;;;;;;4.30;2.87;;;;;;;16.01;61.17;96547.84;6977579;28;20676;-82
2023/10/27 02:38:54;;;;;;;4.17;2.33;;;;;;;15.89;61.58;96550.19;6979050;28;20329;-81
2023/10/27 02:42:16;;;;;;;4.13;2.40;;;;;;;15.79;61.50;96539.44;6978144;28;20259;-80
2023/10/27 02:45:37;;;;;;;4.63;2.70;;;;;;;15.84;61.56;96547.53;6973730;28;20218;-81
2023/10/27 02:49:00;;;;;;;5.17;2.20;;;;;;;15.81;61.53;96542.69;6973160;28;20362;-81
2023/10/27 02:52:22;;;;;;;3.70;2.23;;;;;;;15.84;61.31;96528.53;6975762;28;20223;-81
2023/10/27 02:55:43;;;;;;;2.77;2.20;;;;;;;16.01;60.87;96534.25;6972020;28;20252;-81
2023/10/27 02:59:05;;;;;;;5.23;2.30;;;;;;;15.85;61.25;96532.84;6977855;28;20253;-81
2023/10/27 03:02:27;;;;;;;7.23;2.80;;;;;;;15.90;61.25;96540.09;6974496;28;20205;-81
2023/10/27 03:05:51;;;;;;;3.37;2.43;;;;;;;15.83;60.76;96517.94;6970519;28;20833;-81
2023/10/27 03:09:12;;;;;;;5.13;2.40;;;;;;;15.72;61.12;96527.31;6965097;28;20269;-81
2023/10/27 03:12:34;;;;;;;4.60;2.10;;;;;;;15.72;61.11;96522.72;6960178;28;20688;-82
2023/10/27 03:15:55;;;;;;;3.73;2.00;;;;;;;15.63;60.40;96488.34;6977205;28;20332;-81
2023/10/27 03:19:17;;;;;;;4.07;2.10;;;;;;;15.73;60.74;96526.22;6963167;28;20235;-81
2023/10/27 03:22:41;;;;;;;2.27;1.57;;;;;;;15.23;60.72;96469.84;6959414;28;20206;-81
2023/10/27 03:26:02;;;;;;;2.60;1.80;;;;;;;15.58;60.23;96505.50;6977171;28;20194;-82
2023/10/27 03:29:24;;;;;;;2.00;1.63;;;;;;;15.82;59.42;96517.13;6976535;28;20296;-82
2023/10/27 03:32:46;;;;;;;1.90;1.60;;;;;;;15.73;59.88;96518.88;6976289;28;20230;-81
2023/10/27 03:36:07;;;;;;;3.07;1.90;;;;;;;15.76;59.76;96514.78;6976155;28;20214;-81
2023/10/27 03:39:30;;;;;;;4.30;1.90;;;;;;;15.87;60.04;96527.13;6974096;28;20210;-81
2023/10/27 03:42:52;;;;;;;2.80;2.60;;;;;;;15.87;59.87;96497.25;6972440;28;20626;-80
2023/10/27 03:46:13;;;;;;;5.67;1.93;;;;;;;15.16;61.76;96512.81;6977485;28;20222;-81
2023/10/27 03:49:35;;;;;;;3.20;1.90;;;;;;;15.42;61.38;96517.69;6976958;28;20286;-81
2023/10/27 03:52:56;;;;;;;2.93;2.10;;;;;;;15.00;61.64;96470.66;6975588;28;20199;-81
2023/10/27 03:56:19;;;;;;;4.50;2.00;;;;;;;14.78;63.62;96497.50;6974354;28;20607;-81
2023/10/27 03:59:41;;;;;;;2.87;1.87;;;;;;;14.83;63.48;96489.31;6954242;28;20295;-81
2023/10/27 04:03:02;;;;;;;5.57;2.23;;;;;;;15.45;62.10;96500.78;6962123;28;20715;-81
2023/10/27 04:06:24;;;;;;;3.20;2.07;;;;;;;15.51;61.51;96487.97;6957854;28;21065;-81
2023/10/27 04:09:45;;;;;;;2.83;1.90;;;;;;;15.97;60.37;96487.00;6967688;28;20351;-82
2023/10/27 04:13:08;;;;;;;3.17;2.00;;;;;;;15.82;59.86;96476.34;6960451;28;20661;-80
2023/10/27 04:16:30;;;;;;;4.43;1.90;;;;;;;15.92;60.36;96491.72;6975372;28;20226;-81
2023/10/27 04:19:51;;;;;;;2.47;1.80;;;;;;;16.04;60.06;96505.69;6971829;28;20219;-81
2023/10/27 04:23:13;;;;;;;1.87;1.77;;;;;;;15.65;60.52;96450.81;6954561;28;20298;-81
2023/10/27 04:26:36;;;;;;;2.87;1.90;;;;;;;15.91;59.97;96490.09;6972286;28;20685;-81
2023/10/27 04:29:59;;;;;;;3.47;2.17;;;;;;;15.65;60.62;96497.81;6984682;28;20226;-81
2023/10/27 04:33:20;;;;;;;3.47;2.20;;;;;;;16.01;60.66;96507.06;6957043;28;20200;-81
2023/10/27 04:36:43;;;;;;;2.83;2.53;;;;;;;15.46;60.91;96483.41;6962629;28;20337;-82
2023/10/27 04:40:06;;;;;;;3.10;2.13;;;;;;;15.08;63.66;96508.00;6974243;28;20606;-81
2023/10/27 04:43:29;;;;;;;2.20;2.00;;;;;;;15.09;63.36;96513.16;6960971;28;20213;-81
2023/10/27 04:46:52;;;;;;;2.73;2.03;;;;;;;15.32;62.56;96517.81;6971436;28;20219;-81
2023/10/27 04:50:13;;;;;;;4.07;1.90;;;;;;;15.53;61.86;96504.78;6963562;28;20647;-82
2023/10/27 04:53:36;;;;;;;5.83;2.20;;;;;;;15.14;63.03;96509.56;6979831;28;20207;-81
2023/10/27 04:56:57;;;;;;;2.00;1.57;;;;;;;15.10;62.41;96500.41;6973494;28;20352;-81
2023/10/27 05:00:19;;;;;;;1.70;1.60;;;;;;;15.24;61.08;96507.56;6973842;28;20334;-81
2023/10/27 05:03:41;;;;;;;5.10;2.10;;;;;;;15.41;60.98;96505.22;6976226;28;20382;-81
2023/10/27 05:07:05;;;;;;;2.33;1.67;;;;;;;15.13;61.93;96513.38;6962177;28;20227;-81
2023/10/27 05:10:27;;;;;;;2.30;1.70;;;;;;;15.55;61.32;96513.44;6973359;28;20229;-81
2023/10/27 05:13:48;;;;;;;3.90;1.80;;;;;;;15.39;60.99;96512.03;6972612;28;20784;-81
2023/10/27 05:17:10;;;;;;;3.17;1.90;;;;;;;15.48;60.95;96513.81;6973337;28;20229;-82
2023/10/27 05:20:36;;;;;;;1.80;1.70;;;;;;;15.60;60.51;96508.75;6973837;28;20210;-81
2023/10/27 05:23:58;;;;;;;2.97;1.90;;;;;;;15.66;59.64;96513.00;6968820;28;20249;-81
2023/10/27 05:27:19;;;;;;;4.67;1.80;;;;;;;15.80;59.20;96523.97;6977025;28;20246;-81
2023/10/27 05:30:43;;;;;;;4.33;1.70;;;;;;;15.83;59.11;96523.38;6973023;28;20268;-81
2023/10/27 05:34:05;;;;;;;2.03;1.60;;;;;;;15.94;59.39;96525.66;6973198;28;20237;-81
2023/10/27 05:37:27;;;;;;;3.77;1.87;;;;;;;15.92;59.42;96532.50;6970486;28;20786;-81
2023/10/27 05:40:49;;;;;;;2.73;1.67;;;;;;;16.15;59.12;96524.25;6944683;28;20233;-80
2023/10/27 05:44:10;;;;;;;1.80;1.70;;;;;;;15.94;59.78;96533.00;6963676;28;20640;-82
2023/10/27 05:47:32;;;;;;;1.83;1.50;;;;;;;16.01;59.84;96531.53;6973943;28;20317;-81
2023/10/27 05:50:53;;;;;;;3.10;1.90;;;;;;;16.09;59.63;96538.19;6974386;28;20317;-80
2023/10/27 05:54:17;;;;;;;3.07;1.73;;;;;;;16.12;59.54;96541.16;6978469;28;20260;-81
2023/10/27 05:57:39;;;;;;;2.77;1.90;;;;;;;16.00;60.26;96554.38;6977578;28;20319;-82
2023/10/27 06:01:01;;;;;;;4.50;3.80;;;;;;;16.02;60.20;96559.50;6979281;28;20199;-82
2023/10/27 06:04:23;;;;;;;3.07;2.23;;;;;;;15.73;61.07;96561.53;6967557;28;20784;-80
2023/10/27 06:07:44;;;;;;;3.87;2.07;;;;;;;15.16;63.85;96567.88;6975512;28;20230;-81
2023/10/27 06:11:07;;;;;;;3.07;2.30;;;;;;;15.30;63.39;96578.88;6977147;28;20317;-81
2023/10/27 06:14:29;;;;;;;4.50;2.43;;;;;;;15.70;62.32;96564.84;6976845;28;20714;-80
2023/10/27 06:17:50;;;;;;;7.00;3.03;;;;;;;15.47;63.25;96590.13;6975659;28;20222;-80
2023/10/27 06:21:12;;;;;;;2.63;2.43;;;;;;;15.47;63.91;96588.22;6975127;28;20309;-81
2023/10/27 06:24:33;;;;;;;6.10;3.70;;;;;;;15.72;63.20;96589.81;6974217;28;20791;-81
2023/10/27 06:27:56;;;;;;;4.87;2.90;;;;;;;15.45;63.81;96589.59;6972110;28;20356;-80
2023/10/27 06:31:18;;;;;;;3.53;2.90;;;;;;;15.87;63.15;96595.06;6974586;28;20320;-81
2023/10/27 06:34:39;;;;;;;5.57;3.00;;;;;;;16.00;62.52;96594.34;6959689;28;20231;-80
2023/10/27 06:38:01;;;;;;;4.83;3.00;;;;;;;15.50;63.51;96601.22;6975021;28;20364;-80
2023/10/27 06:41:22;;;;;;;5.00;2.80;;;;;;;15.01;64.99;96608.78;6973401;28;20758;-80
2023/10/27 06:44:45;;;;;;;2.97;2.40;;;;;;;14.27;66.84;96623.75;6972415;28;20297;-80
2023/10/27 06:48:06;;;;;;;3.00;2.57;;;;;;;14.96;65.24;96606.09;6973768;28;20259;-81
2023/10/27 06:51:28;;;;;;;3.63;2.00;;;;;;;15.69;62.45;96610.22;6969771;28;20318;-81
2023/10/27 06:54:50;;;;;;;2.50;2.23;;;;;;;14.84;63.78;96521.56;6970071;28;20348;-80
2023/10/27 06:58:11;;;;;;;4.37;3.57;;;;;;;14.93;64.92;96633.78;6971530;28;20251;-80
2023/10/27 07:01:34;;;;;;;4.00;2.60;;;;;;;15.01;65.19;96629.66;6963771;28;20210;-80
2023/10/27 07:04:56;;;;;;;3.40;2.30;;;;;;;15.26;64.23;96643.78;6969306;28;20337;-80
2023/10/27 07:08:17;;;;;;;2.87;2.47;;;;;;;15.44;64.06;96634.94;6975747;28;20691;-80
2023/10/27 07:11:39;;;;;;;2.03;1.90;;;;;;;15.58;63.27;96648.66;6968094;28;20232;-80
2023/10/27 07:15:00;;;;;;;3.40;2.60;;;;;;;15.82;62.05;96631.22;6975436;28;20654;-81
2023/10/27 07:18:23;;;;;;;2.33;1.90;;;;;;;15.16;63.19;96618.66;6974029;28;20358;-81
2023/10/27 07:21:45;;;;;;;1.87;1.70;;;;;;;15.66;62.37;96637.16;6972278;28;20202;-81
2023/10/27 07:25:07;;;;;;;2.80;2.60;;;;;;;15.80;61.75;96646.22;6973938;28;20287;-81
2023/10/27 07:28:29;;;;;;;1.90;1.80;;;;;;;15.87;61.40;96646.69;6966160;28;20321;-81
2023/10/27 07:31:50;;;;;;;1.97;1.87;;;;;;;15.70;61.48;96602.88;6969081;28;20331;-81
2023/10/27 07:35:13;;;;;;;1.83;1.63;;;;;;;15.91;61.23;96658.56;6968438;28;20292;-82
2023/10/27 07:38:35;;;;;;;1.90;1.70;;;;;;;15.97;61.24;96669.09;6968779;28;20688;-82
2023/10/27 07:41:57;;;;;;;1.67;1.57;;;;;;;16.14;60.66;96669.44;6974753;28;20369;-83
2023/10/27 07:45:18;;;;;;;2.00;1.60;;;;;;;16.15;60.62;96662.09;6975552;28;20211;-83
2023/10/27 07:48:40;;;;;;;1.80;1.70;;;;;;;15.94;61.37;96666.97;6974454;28;20313;-82
2023/10/27 07:52:05;;;;;;;2.43;2.10;;;;;;;15.90;61.58;96665.09;6972786;28;20280;-83
2023/10/27 07:55:27;;;;;;;2.23;2.03;;;;;;;16.11;61.47;96675.44;6963974;28;20832;-82
2023/10/27 07:58:48;;;;;;;3.13;2.50;;;;;;;15.58;61.32;96594.34;6973748;28;20601;-82
2023/10/27 08:02:10;;;;;;;2.73;2.10;;;;;;;16.05;61.27;96687.47;6969389;28;20211;-82
2023/10/27 08:05:31;;;;;;;2.30;2.10;;;;;;;15.90;62.11;96693.09;6968462;28;20227;-82
2023/10/27 08:08:54;;;;;;;2.10;1.73;;;;;;;15.96;61.61;96699.28;6974729;28;20318;-81
2023/10/27 08:12:16;;;;;;;2.33;2.13;;;;;;;15.89;62.38;96690.66;6964332;28;20310;-82
2023/10/27 08:15:38;;;;;;;2.17;1.63;;;;;;;16.03;61.42;96692.41;6969195;28;20268;-83
2023/10/27 08:18:59;;;;;;;1.77;1.67;;;;;;;15.96;61.92;96680.25;6969757;28;20227;-83
2023/10/27 08:22:21;;;;;;;2.33;1.83;;;;;;;16.36;61.52;96724.06;6964308;28;20210;-82
2023/10/27 08:25:43;;;;;;;1.80;1.70;;;;;;;16.03;62.48;96737.78;6964594;28;20343;-81
2023/10/27 08:29:05;;;;;;;2.60;2.00;;;;;;;16.01;62.73;96735.38;6974747;28;20615;-82
2023/10/27 08:32:27;;;;;;;2.10;1.90;;;;;;;15.91;62.95;96751.78;6968400;28;20280;-84
2023/10/27 08:35:48;;;;;;;1.70;1.60;;;;;;;15.83;63.48;96743.44;6972282;28;20207;-82
2023/10/27 08:39:10;;;;;;;1.90;1.80;;;;;;;16.15;62.71;96739.00;6972954;28;20347;-82
2023/10/27 08:42:33;;;;;;;2.60;1.87;;;;;;;16.36;61.32;96743.09;6958737;28;20251;-84
2023/10/27 08:45:56;;;;;;;1.70;1.57;;;;;;;16.30;61.99;96747.00;6967503;28;20210;-83
2023/10/27 08:49:17;;;;;;;1.60;1.50;;;;;;;16.13;62.45;96754.81;6973073;28;20223;-83
2023/10/27 08:52:39;;;;;;;1.33;1.30;;;;;;;16.19;61.61;96755.53;6967506;28;20323;-81
2023/10/27 08:56:01;;;;;;;1.40;1.13;;;;;;;16.39;61.34;96761.56;6971956;28;20200;-82
2023/10/27 08:59:24;;;;;;;1.30;1.20;;;;;;;16.52;59.90;96765.50;6971014;28;20328;-82
2023/10/27 09:02:46;;;;;;;1.43;1.20;;;;;;;16.15;61.52;96787.16;6965693;28;20249;-83
2023/10/27 09:06:07;;;;;;;1.23;1.23;;;;;;;15.98;61.17;96762.31;6973693;28;20292;-82
2023/10/27 09:09:31;;;;;;;1.53;1.30;;;;;;;16.02;61.09;96771.50;6970555;28;20547;-82
2023/10/27 09:12:57;;;;;;;1.33;1.33;;;;;;;16.41;61.39;96774.91;6973099;28;20243;-82
2023/10/27 09:16:26;;;;;;;1.60;1.30;;;;;;;16.48;60.22;96773.44;6956673;28;20907;-82
2023/10/27 09:19:47;;;;;;;1.37;1.27;;;;;;;16.43;59.46;96778.13;6956804;28;20226;-82
2023/10/27 09:23:09;;;;;;;1.23;1.23;;;;;;;16.78;59.84;96770.31;6971663;28;20422;-82
2023/10/27 09:26:33;;;;;;;2.53;1.47;;;;;;;16.85;59.52;96787.09;6972990;28;20266;-81
2023/10/27 09:29:55;;;;;;;1.20;1.17;;;;;;;16.56;60.41;96799.16;6973245;28;20630;-81
2023/10/27 09:33:20;;;;;;;1.60;1.50;;;;;;;16.39;60.41;96794.22;6957442;28;20324;-82
2023/10/27 09:36:42;;;;;;;2.13;1.30;;;;;;;16.45;60.78;96789.53;6972793;28;20275;-82
2023/10/27 09:40:06;;;;;;;1.20;1.20;;;;;;;15.76;62.43;96772.88;6971006;28;20253;-81
2023/10/27 09:43:29;;;;;;;1.03;1.03;;;;;;;16.69;60.69;96795.75;6962839;28;20555;-81
2023/10/27 09:46:52;;;;;;;1.50;1.40;;;;;;;17.10;59.54;96813.16;6971301;28;20236;-82
2023/10/27 09:50:18;;;;;;;1.50;1.00;;;;;;;17.41;59.13;96814.34;6963948;28;20270;-81
2023/10/27 09:53:41;;;;;;;1.40;1.30;;;;;;;17.52;58.54;96827.47;6964950;28;20232;-80
2023/10/27 09:57:04;;;;;;;1.73;1.63;;;;;;;16.94;59.88;96833.50;6964953;28;20312;-81
2023/10/27 10:00:31;;;;;;;2.10;1.90;;;;;;;17.02;61.56;96841.84;6969040;28;20581;-80
2023/10/27 10:03:53;;;;;;;1.70;1.60;;;;;;;16.40;61.86;96800.47;6970724;28;20199;-80
2023/10/27 10:07:28;;;;;;;3.00;2.70;;;;;;;16.72;62.06;96846.84;6970030;28;20259;-80
2023/10/27 10:10:50;;;;;;;2.50;1.93;;;;;;;16.53;63.62;96841.41;6964611;28;20647;-81
2023/10/27 10:14:46;;;;;;;2.17;2.07;;;;;;;16.79;62.58;96839.97;6963758;28;20396;-81
2023/10/27 10:18:09;;;;;;;5.67;3.83;;;;;;;16.75;62.13;96847.09;6969053;28;20314;-82
2023/10/27 10:21:38;;;;;;;1.77;1.67;;;;;;;17.00;61.55;96843.22;6972481;28;20248;-81
2023/10/27 10:25:29;;;;;;;1.70;1.60;;;;;;;16.36;62.63;96849.16;6962488;28;20360;-81
2023/10/27 10:28:51;;;;;;;3.97;1.80;;;;;;;16.39;62.31;96855.97;6963572;28;20223;-82
2023/10/27 10:32:36;;;;;;;2.37;1.50;;;;;;;17.20;61.25;96835.59;6963436;28;20288;-85
2023/10/27 10:36:27;;;;;;;2.10;1.73;;;;;;;17.48;59.09;96861.06;6965825;28;20264;-83
2023/10/27 10:40:23;;;;;;;4.00;2.47;;;;;;;17.05;61.09;96862.22;6976440;28;20211;-82
2023/10/27 10:44:11;;;;;;;3.20;1.97;;;;;;;17.07;62.29;96849.13;6971401;28;20235;-83
2023/10/27 10:47:32;;;;;;;4.00;1.93;;;;;;;17.68;61.40;96860.78;6970727;28;20227;-82
2023/10/27 10:50:58;;;;;;;2.47;1.90;;;;;;;18.00;58.24;96850.69;6965268;28;20259;-83
2023/10/27 10:54:21;;;;;;;2.40;2.20;;;;;;;18.18;59.72;96847.09;6974086;28;20311;-83
2023/10/27 10:57:42;;;;;;;3.03;2.03;;;;;;;18.51;58.19;96815.91;6973565;28;20703;-83
2023/10/27 11:01:05;;;;;;;2.33;2.13;;;;;;;18.70;55.51;96778.38;6958394;28;20270;-85
2023/10/27 11:04:31;;;;;;;4.63;2.07;;;;;;;19.07;56.44;96854.59;6977415;28;20203;-84
2023/10/27 11:07:52;;;;;;;2.87;2.20;;;;;;;19.17;53.58;96848.09;6962651;28;20263;-83
2023/10/27 11:11:16;;;;;;;3.00;1.90;;;;;;;18.88;53.46;96818.41;6969571;28;20275;-84
2023/10/27 11:14:41;;;;;;;3.47;1.83;;;;;;;18.50;54.47;96789.72;6963621;28;20636;-83
2023/10/27 11:18:08;;;;;;;7.27;2.00;;;;;;;18.43;54.05;96824.00;6961320;28;20226;-84
2023/10/27 11:21:32;;;;;;;5.67;2.73;;;;;;;18.40;54.93;96817.22;6973612;28;20292;-82
2023/10/27 11:24:54;;;;;;;2.40;1.77;;;;;;;19.16;54.06;96843.75;6969909;28;20215;-84
2023/10/27 11:28:20;;;;;;;3.40;1.80;;;;;;;18.84;54.04;96835.69;6977732;28;20652;-83
2023/10/27 11:31:42;;;;;;;4.73;1.60;;;;;;;18.09;54.79;96815.31;6964809;28;20291;-84
2023/10/27 11:35:05;;;;;;;4.10;2.70;;;;;;;18.65;53.77;96827.66;6970285;28;20206;-83
2023/10/27 11:38:34;;;;;;;5.63;2.30;;;;;;;18.39;53.19;96807.41;6970246;28;20309;-86
2023/10/27 11:41:59;;;;;;;4.47;1.67;;;;;;;18.84;51.92;96836.53;6957939;28;20239;-83
2023/10/27 11:45:20;;;;;;;2.67;1.63;;;;;;;19.08;51.10;96837.09;6958198;28;20584;-84
2023/10/27 11:48:43;;;;;;;3.37;1.53;;;;;;;18.94;50.79;96836.31;6957045;28;20333;-83
2023/10/27 11:52:06;;;;;;;1.53;1.43;;;;;;;18.58;51.27;96815.50;6965653;28;20229;-84
2023/10/27 11:55:27;;;;;;;4.00;1.70;;;;;;;18.57;50.52;96847.44;6972901;28;20680;-84
2023/10/27 11:58:49;;;;;;;4.80;2.20;;;;;;;18.33;53.22;96835.13;6965303;28;20223;-83
2023/10/27 12:02:10;;;;;;;3.57;1.80;;;;;;;18.24;51.16;96842.34;6965687;28;20281;-84
2023/10/27 12:05:32;;;;;;;3.20;1.77;;;;;;;17.89;50.74;96780.25;6957084;28;20300;-84
2023/10/27 12:08:55;;;;;;;4.23;2.03;;;;;;;18.06;50.98;96783.22;6988006;28;20225;-84
2023/10/27 12:12:16;;;;;;;2.90;1.70;;;;;;;18.38;51.20;96840.44;6965735;28;20247;-83
2023/10/27 12:15:38;;;;;;;4.17;2.03;;;;;;;18.21;50.72;96832.84;6962948;28;20209;-82
2023/10/27 12:19:01;;;;;;;4.33;1.83;;;;;;;18.38;51.11;96838.53;6962279;28;20859;-83
2023/10/27 12:22:22;;;;;;;2.57;1.57;;;;;;;18.50;50.80;96835.31;6972384;28;20237;-83
2023/10/27 12:25:45;;;;;;;1.87;1.70;;;;;;;18.80;49.55;96834.72;6966879;28;20244;-83
2023/10/27 12:29:08;;;;;;;3.03;1.80;;;;;;;18.44;49.68;96831.06;6960165;28;20312;-84
2023/10/27 12:32:32;;;;;;;3.43;2.33;;;;;;;19.11;48.43;96830.22;6966100;28;20232;-83
2023/10/27 12:35:54;;;;;;;1.97;1.47;;;;;;;19.08;48.40;96842.56;6968189;28;20202;-82
2023/10/27 12:39:16;;;;;;;1.87;1.70;;;;;;;18.62;48.44;96835.59;6966842;28;20696;-82
2023/10/27 12:42:39;;;;;;;3.30;1.80;;;;;;;18.34;48.67;96831.28;6967486;28;20292;-82
2023/10/27 12:46:02;;;;;;;2.93;2.00;;;;;;;19.09;47.50;96825.06;6971058;28;20225;-82
2023/10/27 12:49:26;;;;;;;6.10;2.73;;;;;;;18.75;47.24;96819.22;6959577;28;20227;-83
2023/10/27 12:52:48;;;;;;;2.17;1.67;;;;;;;18.31;48.84;96777.28;6970147;28;20701;-82
2023/10/27 12:56:09;;;;;;;3.50;1.87;;;;;;;18.78;47.92;96840.47;6972056;28;20234;-81
2023/10/27 12:59:33;;;;;;;7.27;4.13;;;;;;;18.20;49.25;96853.03;6965891;28;20210;-81
2023/10/27 13:02:56;;;;;;;4.57;2.37;;;;;;;18.22;48.77;96852.75;6970598;28;20198;-82
2023/10/27 13:06:18;;;;;;;3.73;2.90;;;;;;;18.12;49.67;96855.66;6967712;28;20202;-84
2023/10/27 13:09:40;;;;;;;5.50;2.10;;;;;;;18.34;48.18;96851.16;6967279;28;20649;-82
2023/10/27 13:13:02;;;;;;;4.67;2.83;;;;;;;18.69;48.12;96855.16;6958587;28;20227;-82
2023/10/27 13:16:25;;;;;;;3.77;3.20;;;;;;;18.80;47.57;96856.56;6953422;28;20240;-84
2023/10/27 13:19:47;;;;;;;2.47;1.50;;;;;;;18.65;47.78;96860.41;6971533;28;20206;-82
2023/10/27 13:23:09;;;;;;;3.60;2.17;;;;;;;18.89;47.75;96858.28;6967764;28;20211;-83
2023/10/27 13:26:30;;;;;;;2.67;1.63;;;;;;;18.96;47.64;96864.13;6970734;28;20261;-83
2023/10/27 13:29:57;;;;;;;2.17;1.53;;;;;;;18.49;48.93;96839.16;6960606;28;20217;-85
2023/10/27 13:33:20;;;;;;;1.87;1.77;;;;;;;18.72;48.04;96858.06;6966920;28;20318;-83
2023/10/27 13:36:42;;;;;;;4.23;2.03;;;;;;;19.42;47.23;96845.66;6969839;28;20234;-83
2023/10/27 13:40:05;;;;;;;6.37;3.13;;;;;;;19.86;46.55;96859.34;6962546;28;20286;-83
2023/10/27 13:43:27;;;;;;;3.13;2.27;;;;;;;19.67;46.89;96857.91;6971232;28;20244;-84
2023/10/27 13:46:48;;;;;;;3.83;2.67;;;;;;;19.40;47.57;96877.91;6952668;28;20682;-83
2023/10/27 13:50:12;;;;;;;2.90;2.53;;;;;;;19.35;47.50;96863.56;6966858;28;20246;-82
2023/10/27 13:53:33;;;;;;;3.37;2.40;;;;;;;19.36;47.30;96855.09;6960478;28;20226;-83
2023/10/27 13:56:55;;;;;;;2.70;2.37;;;;;;;18.67;47.45;96789.09;6968709;28;20305;-83
2023/10/27 14:00:17;;;;;;;2.47;1.90;;;;;;;19.14;47.83;96889.69;6968594;28;20228;-86
2023/10/27 14:03:39;;;;;;;3.23;1.47;;;;;;;19.39;47.45;96891.91;6963918;28;20227;-83
2023/10/27 14:07:02;;;;;;;2.07;1.40;;;;;;;19.30;47.42;96891.00;6969428;28;20222;-84
2023/10/27 14:10:24;;;;;;;1.60;1.50;;;;;;;18.69;48.32;96836.03;6973955;28;20217;-83
2023/10/27 14:13:46;;;;;;;2.20;1.30;;;;;;;17.93;48.93;96792.97;6974064;28;20594;-83
2023/10/27 14:17:08;;;;;;;2.17;1.63;;;;;;;18.76;49.02;96900.00;6967258;28;20230;-83
2023/10/27 14:20:31;;;;;;;2.77;1.63;;;;;;;19.25;48.13;96886.47;6971053;28;20211;-83
2023/10/27 14:23:54;;;;;;;2.93;2.23;;;;;;;19.62;47.55;96897.09;6967615;28;20218;-84
2023/10/27 14:27:15;;;;;;;7.03;4.60;;;;;;;20.00;46.68;96883.91;6974882;28;20219;-84
2023/10/27 14:30:37;;;;;;;2.20;2.00;;;;;;;19.04;47.49;96855.19;6976332;28;20217;-83
2023/10/27 14:33:59;;;;;;;3.33;2.03;;;;;;;19.30;47.38;96841.81;6973636;28;20261;-83
2023/10/27 14:37:20;;;;;;;2.47;1.40;;;;;;;19.41;46.90;96885.00;6977587;28;20229;-84
2023/10/27 14:40:51;;;;;;;2.67;2.00;;;;;;;19.22;47.47;96894.47;6973888;28;20197;-84
2023/10/27 14:44:12;;;;;;;2.67;1.40;;;;;;;18.29;47.95;96806.78;6976532;28;20202;-83
2023/10/27 14:47:34;;;;;;;4.60;3.10;;;;;;;18.95;47.90;96895.28;6977246;28;20257;-85
2023/10/27 14:50:57;;;;;;;3.13;1.60;;;;;;;19.00;47.62;96902.56;6975608;28;20236;-84
2023/10/27 14:54:18;;;;;;;2.17;1.73;;;;;;;18.60;48.10;96859.69;6975133;28;20894;-84
2023/10/27 14:57:42;;;;;;;6.07;3.23;;;;;;;19.32;46.89;96864.19;6953116;28;20248;-83
2023/10/27 15:01:04;;;;;;;4.20;2.77;;;;;;;19.16;45.86;96828.16;6971223;28;20244;-83
2023/10/27 15:04:26;;;;;;;15.03;8.70;;;;;;;19.33;45.55;96797.50;6962774;28;20553;-83
2023/10/27 15:07:47;;;;;;;6.30;3.23;;;;;;;19.16;47.15;96910.13;6964692;28;20226;-83
2023/10/27 15:11:09;;;;;;;5.83;3.40;;;;;;;19.33;46.95;96869.34;6956418;28;20600;-83
2023/10/27 15:14:32;;;;;;;2.00;1.83;;;;;;;18.44;48.03;96831.06;6963508;28;20371;-85
2023/10/27 15:17:53;;;;;;;10.27;5.00;;;;;;;19.36;47.58;96920.66;6957472;28;20566;-82
2023/10/27 15:21:17;;;;;;;5.63;2.23;;;;;;;19.54;47.13;96916.16;6954742;28;20317;-83
2023/10/27 15:24:38;;;;;;;7.17;3.90;;;;;;;18.46;47.79;96807.03;6946470;28;20282;-82
2023/10/27 15:28:00;;;;;;;4.63;3.27;;;;;;;19.81;46.84;96919.63;6974362;28;20315;-83
2023/10/27 15:31:24;;;;;;;4.07;2.70;;;;;;;19.24;47.29;96930.50;6958628;28;20780;-81
2023/10/27 15:34:45;;;;;;;6.90;4.23;;;;;;;18.87;47.54;96931.47;6970818;28;20236;-84
2023/10/27 15:38:08;;;;;;;7.50;5.07;;;;;;;18.86;47.56;96866.25;6956857;28;20296;-84
2023/10/27 15:41:30;;;;;;;1.40;1.00;;;;;;;18.23;48.96;96909.72;6955818;28;20210;-89
2023/10/27 15:44:58;;;;;;;5.33;2.97;;;;;;;18.39;49.83;96952.03;6948673;28;20289;-83
2023/10/27 15:48:22;;;;;;;1.60;1.40;;;;;;;18.58;49.04;96943.78;6946853;28;20587;-83
2023/10/27 15:51:44;;;;;;;3.30;1.60;;;;;;;18.21;49.90;96961.03;6970838;28;20209;-83
2023/10/27 15:55:07;;;;;;;5.87;2.90;;;;;;;17.58;50.59;96896.34;6971951;28;20314;-83